Time;durP1;ratioP1;P1;durP2;ratioP2;P2;SDS_P1;SDS_P2;PMS_P1;PMS_P2;Temp;Humidity;BMP_temperature;BMP_pressure;BME280_temperature;BME280_humidity;BME280_pressure;Samples;Min_cycle;Max_cycle;Signal;HPM_P1;HPM_P2
2022/01/11 00:00:46;;;;;;;138.32;31.52;;;3.00;86.40;;;;;;6091140;23;98451;-67
2022/01/11 00:03:15;;;;;;;151.45;32.10;;;3.00;86.60;;;;;;6089649;23;98521;-67
2022/01/11 00:05:51;;;;;;;83.75;25.13;;;2.90;87.00;;;;;;6090829;23;98985;-67
2022/01/11 00:08:19;;;;;;;130.10;29.23;;;2.90;86.60;;;;;;6090703;23;98850;-67
2022/01/11 00:10:51;;;;;;;153.35;29.00;;;2.90;87.00;;;;;;6064462;23;98520;-67
2022/01/11 00:13:22;;;;;;;115.57;29.23;;;2.90;86.90;;;;;;6065153;23;98524;-67
2022/01/11 00:15:48;;;;;;;103.68;29.05;;;2.80;86.70;;;;;;6090926;23;103021;-67
2022/01/11 00:18:16;;;;;;;129.38;31.80;;;2.80;86.50;;;;;;6090692;23;99488;-67
2022/01/11 00:20:43;;;;;;;108.70;28.35;;;2.80;86.70;;;;;;6114245;23;98535;-67
2022/01/11 00:25:43;;;;;;;110.38;28.15;;;2.80;87.00;;;;;;6064549;23;100209;-67
2022/01/11 00:28:12;;;;;;;104.75;27.92;;;2.80;87.20;;;;;;6090710;23;98733;-67
2022/01/11 00:30:49;;;;;;;95.45;26.88;;;2.80;87.00;;;;;;6114581;23;98563;-67
2022/01/11 00:33:24;;;;;;;96.00;28.20;;;2.80;86.90;;;;;;6089076;23;98549;-67
2022/01/11 00:35:59;;;;;;;123.28;30.33;;;2.80;87.20;;;;;;6090905;23;99188;-67
2022/01/11 00:38:33;;;;;;;146.95;31.23;;;2.80;87.10;;;;;;6090828;23;98891;-67
2022/01/11 00:41:06;;;;;;;96.22;26.00;;;2.80;86.80;;;;;;6114598;23;97765;-67
2022/01/11 00:43:35;;;;;;;131.23;30.53;;;2.80;86.70;;;;;;6089649;23;98506;-67
2022/01/11 00:46:04;;;;;;;111.70;29.02;;;2.70;86.90;;;;;;6064143;23;100241;-67
2022/01/11 00:48:32;;;;;;;148.13;30.45;;;2.60;87.10;;;;;;6113089;23;101791;-67
2022/01/11 00:51:00;;;;;;;133.30;29.50;;;2.60;87.30;;;;;;6113827;23;98595;-67
2022/01/11 00:53:27;;;;;;;154.43;30.65;;;2.60;87.20;;;;;;6091034;23;98396;-67
2022/01/11 00:55:54;;;;;;;125.32;29.25;;;2.60;87.40;;;;;;6090235;23;99138;-65
2022/01/11 00:58:21;;;;;;;99.28;29.13;;;2.60;87.40;;;;;;6090518;23;98885;-65
2022/01/11 01:00:48;;;;;;;118.63;27.77;;;2.60;87.20;;;;;;6090994;23;99003;-68
2022/01/11 01:03:16;;;;;;;99.25;28.50;;;2.60;86.90;;;;;;6090302;23;98454;-68
2022/01/11 01:05:44;;;;;;;96.82;27.35;;;2.60;87.20;;;;;;6114045;23;99404;-65
2022/01/11 01:08:11;;;;;;;109.22;27.25;;;2.60;87.20;;;;;;6063772;23;100864;-65
2022/01/11 01:10:46;;;;;;;123.72;28.35;;;2.50;87.00;;;;;;6113762;23;98448;-66
2022/01/11 01:13:19;;;;;;;110.97;28.73;;;2.50;87.20;;;;;;6088276;23;99373;-65
2022/01/11 01:15:52;;;;;;;95.28;27.50;;;2.50;87.10;;;;;;6090376;23;99092;-65
2022/01/11 01:18:33;;;;;;;118.15;31.38;;;2.50;87.00;;;;;;6088811;23;101216;-65
2022/01/11 01:21:03;;;;;;;94.82;29.67;;;2.50;87.20;;;;;;6089311;23;98482;-65
2022/01/11 01:23:30;;;;;;;93.13;26.98;;;2.50;87.30;;;;;;6092246;23;98971;-65
2022/01/11 01:25:58;;;;;;;97.32;28.35;;;2.40;86.80;;;;;;6114867;23;101719;-65
2022/01/11 01:28:25;;;;;;;92.30;27.30;;;2.40;87.40;;;;;;6114693;23;100009;-65
2022/01/11 01:30:55;;;;;;;85.72;26.05;;;2.40;87.40;;;;;;6115540;23;97789;-65
2022/01/11 01:33:22;;;;;;;89.18;26.45;;;2.30;87.50;;;;;;6114516;23;98560;-65
2022/01/11 01:35:59;;;;;;;108.70;27.20;;;2.30;88.20;;;;;;6091587;23;99042;-65
2022/01/11 01:38:26;;;;;;;94.35;29.15;;;2.20;88.70;;;;;;6089378;23;100395;-65
2022/01/11 01:40:59;;;;;;;107.45;29.60;;;2.20;88.40;;;;;;6065536;23;98449;-66
2022/01/11 01:43:27;;;;;;;133.90;27.25;;;2.20;88.70;;;;;;6092106;23;98783;-67
2022/01/11 01:45:58;;;;;;;100.25;29.38;;;2.20;88.30;;;;;;6091383;23;100070;-67
2022/01/11 01:48:25;;;;;;;117.65;30.40;;;2.20;88.50;;;;;;6089564;23;99982;-67
2022/01/11 01:50:53;;;;;;;113.50;28.23;;;2.20;88.30;;;;;;6114928;23;98517;-67
2022/01/11 01:53:20;;;;;;;132.60;31.58;;;2.20;88.40;;;;;;6065214;23;98552;-67
2022/01/11 01:55:48;;;;;;;131.20;30.58;;;2.20;88.30;;;;;;6065536;23;99367;-67
2022/01/11 01:58:16;;;;;;;88.10;26.80;;;2.30;88.30;;;;;;6064924;23;100894;-67
2022/01/11 02:00:50;;;;;;;112.72;28.60;;;2.30;88.00;;;;;;6065394;23;98483;-67
2022/01/11 02:03:25;;;;;;;155.20;32.95;;;2.30;88.10;;;;;;6064810;23;99261;-67
2022/01/11 02:05:54;;;;;;;133.63;30.67;;;2.30;88.10;;;;;;6114481;23;101365;-67
2022/01/11 02:08:22;;;;;;;154.95;32.97;;;2.30;88.00;;;;;;6064529;23;101335;-67
2022/01/11 02:10:49;;;;;;;109.22;28.80;;;2.30;88.00;;;;;;6114829;23;98586;-67
2022/01/11 02:13:17;;;;;;;112.68;26.90;;;2.30;87.90;;;;;;6065152;23;98559;-67
2022/01/11 02:15:44;;;;;;;140.63;31.90;;;2.30;87.80;;;;;;6091230;23;99074;-67
2022/01/11 02:18:18;;;;;;;122.03;29.63;;;2.30;88.00;;;;;;6064969;23;101362;-67
2022/01/11 02:20:49;;;;;;;152.35;31.42;;;2.30;88.20;;;;;;6066008;23;97928;-67
2022/01/11 02:23:24;;;;;;;128.55;31.02;;;2.30;88.40;;;;;;6065057;23;99106;-67
2022/01/11 02:25:51;;;;;;;87.45;26.65;;;2.40;88.50;;;;;;6114381;23;101539;-67
2022/01/11 02:28:24;;;;;;;142.77;30.88;;;2.40;88.40;;;;;;6113289;23;101300;-67
2022/01/11 02:30:52;;;;;;;138.80;33.58;;;2.40;88.40;;;;;;6114761;23;98540;-67
2022/01/11 02:33:54;;;;;;;116.00;30.88;;;2.40;88.40;;;;;;6089399;23;98567;-67
2022/01/11 02:36:53;;;;;;;148.05;30.92;;;2.50;88.10;;;;;;6064968;23;98958;-67
2022/01/11 02:39:34;;;;;;;141.18;28.80;;;2.50;87.70;;;;;;6086256;23;102018;-73
2022/01/11 02:42:08;;;;;;;130.47;29.97;;;2.50;87.80;;;;;;6089872;23;98744;-73
2022/01/11 02:44:39;;;;;;;122.63;29.05;;;2.50;87.50;;;;;;6065571;23;98510;-73
2022/01/11 02:47:08;;;;;;;132.65;29.80;;;2.50;87.30;;;;;;6089170;23;100373;-72
2022/01/11 02:49:37;;;;;;;137.80;28.77;;;2.50;87.40;;;;;;6088888;23;100586;-72
2022/01/11 02:52:09;;;;;;;142.52;31.88;;;2.50;87.20;;;;;;6065418;23;98564;-72
2022/01/11 02:54:38;;;;;;;161.88;31.45;;;2.50;87.40;;;;;;6114096;23;99525;-72
2022/01/11 02:57:13;;;;;;;185.00;31.88;;;2.40;87.60;;;;;;6113726;23;101229;-72
2022/01/11 02:59:41;;;;;;;152.73;28.42;;;2.40;87.40;;;;;;6113862;23;101135;-72
2022/01/11 03:02:09;;;;;;;134.35;25.80;;;2.40;88.20;;;;;;6114247;23;98530;-72
2022/01/11 03:04:37;;;;;;;135.80;27.80;;;2.30;88.10;;;;;;6113955;23;98550;-72
2022/01/11 03:07:05;;;;;;;99.43;24.40;;;2.20;88.70;;;;;;6064764;23;100153;-72
2022/01/11 03:09:54;;;;;;;130.57;29.58;;;2.20;88.60;;;;;;6089291;23;101470;-72
2022/01/11 03:12:24;;;;;;;226.25;36.08;;;2.10;89.00;;;;;;6114826;23;97760;-72
2022/01/11 03:14:52;;;;;;;109.53;26.63;;;2.10;89.00;;;;;;6065218;23;98602;-72
2022/01/11 03:17:19;;;;;;;113.82;27.55;;;2.10;88.80;;;;;;6113763;23;101636;-72
2022/01/11 03:19:46;;;;;;;118.15;26.58;;;2.10;88.90;;;;;;6113653;23;101406;-72
2022/01/11 03:22:13;;;;;;;119.88;27.83;;;2.10;88.90;;;;;;6091401;23;98417;-72
2022/01/11 03:24:41;;;;;;;94.72;29.08;;;2.10;89.30;;;;;;6114214;23;98509;-72
2022/01/11 03:27:08;;;;;;;151.20;29.42;;;2.10;89.50;;;;;;6114321;23;101820;-72
2022/01/11 03:29:37;;;;;;;127.38;27.42;;;2.10;89.30;;;;;;6113766;23;101479;-72
2022/01/11 03:32:06;;;;;;;127.80;27.70;;;2.10;89.10;;;;;;6089989;23;99057;-72
2022/01/11 03:34:45;;;;;;;141.70;32.13;;;2.10;89.20;;;;;;6065335;23;98592;-73
2022/01/11 03:37:16;;;;;;;135.57;29.50;;;2.10;89.50;;;;;;6089541;23;100667;-73
2022/01/11 03:39:45;;;;;;;134.68;30.73;;;2.10;88.70;;;;;;6089090;23;100124;-66
2022/01/11 03:42:12;;;;;;;179.57;31.38;;;2.10;88.50;;;;;;6114385;23;98473;-66
2022/01/11 03:44:40;;;;;;;104.95;26.17;;;2.10;88.70;;;;;;6113599;23;99267;-66
2022/01/11 03:47:07;;;;;;;98.00;20.63;;;2.00;88.80;;;;;;6088792;23;101937;-65
2022/01/11 03:49:34;;;;;;;81.10;25.10;;;2.00;89.00;;;;;;6090830;23;98764;-65
2022/01/11 03:52:01;;;;;;;121.05;27.05;;;1.90;88.90;;;;;;6065119;23;98876;-65
2022/01/11 03:54:42;;;;;;;114.30;27.42;;;2.00;89.20;;;;;;6114069;23;98527;-66
2022/01/11 03:57:19;;;;;;;116.72;30.08;;;2.00;88.90;;;;;;6114004;23;101469;-66
2022/01/11 03:59:47;;;;;;;95.88;25.67;;;2.00;89.00;;;;;;6113755;23;101465;-66
2022/01/11 04:02:14;;;;;;;104.13;25.63;;;2.00;88.70;;;;;;6114898;23;97774;-66
2022/01/11 04:04:42;;;;;;;78.30;22.95;;;2.00;88.60;;;;;;6113561;23;98718;-66
2022/01/11 04:07:09;;;;;;;93.32;25.52;;;2.00;88.60;;;;;;6088962;23;101513;-66
2022/01/11 04:09:36;;;;;;;72.40;22.25;;;2.00;88.50;;;;;;6113122;23;101554;-66
2022/01/11 04:12:03;;;;;;;91.32;25.17;;;2.00;88.70;;;;;;6064886;23;98531;-66
2022/01/11 04:14:30;;;;;;;101.10;23.67;;;2.00;89.40;;;;;;6091222;23;98780;-66
2022/01/11 04:16:57;;;;;;;93.45;23.67;;;2.00;89.10;;;;;;6090944;23;99107;-66
2022/01/11 04:19:24;;;;;;;65.68;21.05;;;2.00;88.80;;;;;;6113656;23;101514;-66
2022/01/11 04:21:52;;;;;;;68.78;22.55;;;2.00;88.60;;;;;;6114127;23;98467;-68
2022/01/11 04:24:20;;;;;;;66.07;22.00;;;1.90;88.60;;;;;;6064658;23;98583;-66
2022/01/11 04:26:50;;;;;;;65.35;22.67;;;1.90;88.40;;;;;;6113647;23;100676;-66
2022/01/11 04:29:17;;;;;;;70.75;23.73;;;1.90;88.90;;;;;;6064408;23;99207;-66
2022/01/11 04:31:44;;;;;;;56.28;21.27;;;1.90;88.90;;;;;;6089224;23;98497;-66
2022/01/11 04:34:17;;;;;;;76.03;24.23;;;2.00;88.70;;;;;;6114099;23;99219;-65
2022/01/11 04:36:44;;;;;;;76.35;25.80;;;2.00;88.70;;;;;;6064207;23;101529;-66
2022/01/11 04:39:14;;;;;;;64.13;22.20;;;2.00;88.60;;;;;;6064423;23;101263;-66
2022/01/11 04:41:41;;;;;;;45.90;22.38;;;2.00;88.50;;;;;;6089351;23;98811;-66
2022/01/11 04:44:09;;;;;;;58.70;21.75;;;2.10;88.60;;;;;;6089120;23;98597;-66
2022/01/11 04:46:38;;;;;;;52.80;20.10;;;2.10;88.40;;;;;;6088597;23;101295;-66
2022/01/11 04:49:05;;;;;;;57.85;21.25;;;2.10;88.00;;;;;;6064404;23;101425;-66
2022/01/11 04:51:34;;;;;;;58.35;21.60;;;2.10;88.80;;;;;;6091088;23;97766;-66
2022/01/11 04:54:03;;;;;;;62.38;22.60;;;2.10;88.10;;;;;;6113798;23;98601;-66
2022/01/11 04:56:30;;;;;;;53.08;22.67;;;2.20;87.80;;;;;;6116259;23;100318;-66
2022/01/11 04:58:57;;;;;;;55.25;21.98;;;2.20;87.80;;;;;;6093284;23;99797;-66
2022/01/11 05:01:25;;;;;;;66.82;22.63;;;2.10;87.90;;;;;;6117177;23;98453;-66
2022/01/11 05:03:52;;;;;;;51.33;19.63;;;2.10;87.70;;;;;;6093315;23;98468;-66
2022/01/11 05:06:19;;;;;;;93.93;23.63;;;2.00;88.30;;;;;;6116546;23;103979;-66
2022/01/11 05:08:46;;;;;;;59.67;21.45;;;2.00;88.50;;;;;;6091267;23;101585;-66
2022/01/11 05:11:13;;;;;;;64.40;23.95;;;1.90;88.50;;;;;;6093986;23;98439;-66
2022/01/11 05:13:41;;;;;;;65.35;24.42;;;2.00;88.20;;;;;;6093659;23;98548;-66
2022/01/11 05:16:22;;;;;;;63.15;23.90;;;2.00;88.40;;;;;;6117108;23;100424;-66
2022/01/11 05:18:49;;;;;;;58.22;23.67;;;2.00;88.30;;;;;;6067008;23;100866;-66
2022/01/11 05:21:16;;;;;;;69.82;22.33;;;1.90;88.70;;;;;;6067702;23;98451;-66
2022/01/11 05:23:47;;;;;;;70.63;25.92;;;2.00;89.10;;;;;;6116555;23;99702;-66
2022/01/11 05:26:14;;;;;;;62.03;23.92;;;2.00;88.60;;;;;;6116676;23;101514;-65
2022/01/11 05:28:41;;;;;;;92.13;25.98;;;2.00;88.40;;;;;;6116445;23;99951;-66
2022/01/11 05:31:08;;;;;;;70.80;25.58;;;2.00;88.50;;;;;;6067527;23;98527;-66
2022/01/11 05:33:35;;;;;;;82.35;26.40;;;2.00;88.50;;;;;;6092058;23;98915;-66
2022/01/11 05:36:02;;;;;;;64.90;19.83;;;2.00;88.40;;;;;;6091199;23;100130;-66
2022/01/11 05:38:31;;;;;;;70.97;25.42;;;2.00;88.40;;;;;;6116405;23;99917;-66
2022/01/11 05:40:58;;;;;;;76.75;26.50;;;2.10;88.20;;;;;;6093791;23;97762;-72
2022/01/11 05:43:25;;;;;;;64.60;24.58;;;2.10;88.30;;;;;;6067580;23;99044;-72
2022/01/11 05:45:52;;;;;;;65.05;26.38;;;2.10;88.10;;;;;;6116230;23;101493;-72
2022/01/11 05:48:20;;;;;;;72.90;26.33;;;2.10;88.70;;;;;;6066591;23;101319;-72
2022/01/11 05:50:49;;;;;;;65.35;25.85;;;2.10;88.50;;;;;;6093275;23;98527;-72
2022/01/11 05:53:18;;;;;;;71.55;27.83;;;2.10;88.60;;;;;;6091927;23;98544;-72
2022/01/11 05:55:46;;;;;;;62.92;27.08;;;2.20;88.80;;;;;;6066400;23;101072;-72
2022/01/11 05:58:13;;;;;;;61.50;25.33;;;2.20;88.70;;;;;;6116282;23;101385;-72
2022/01/11 06:00:40;;;;;;;59.38;25.98;;;2.20;88.70;;;;;;6066893;23;98642;-72
2022/01/11 06:03:08;;;;;;;61.53;26.38;;;2.20;88.50;;;;;;6067289;23;98534;-72
2022/01/11 06:05:39;;;;;;;81.80;26.95;;;2.20;88.50;;;;;;6086459;23;99365;-71
2022/01/11 06:08:09;;;;;;;82.18;28.08;;;2.20;88.20;;;;;;6060001;23;100807;-72
2022/01/11 06:10:38;;;;;;;63.08;25.92;;;2.20;87.80;;;;;;6060496;23;98561;-72
2022/01/11 06:13:05;;;;;;;57.80;24.83;;;2.20;88.10;;;;;;6084508;23;99311;-72
2022/01/11 06:15:33;;;;;;;79.45;28.80;;;2.20;87.80;;;;;;6060058;23;101646;-73
2022/01/11 06:18:01;;;;;;;73.72;27.00;;;2.20;88.10;;;;;;6059652;23;101555;-72
2022/01/11 06:20:30;;;;;;;59.13;22.98;;;2.20;88.10;;;;;;6060409;23;98567;-72
2022/01/11 06:22:58;;;;;;;65.35;27.35;;;2.20;87.60;;;;;;6060123;23;98470;-72
2022/01/11 06:25:25;;;;;;;75.68;29.00;;;2.20;87.40;;;;;;6060017;23;101529;-73
2022/01/11 06:27:53;;;;;;;71.90;25.35;;;2.20;88.30;;;;;;6059867;23;101231;-72
2022/01/11 06:30:21;;;;;;;80.85;29.15;;;2.20;87.90;;;;;;6062802;23;97909;-72
2022/01/11 06:32:48;;;;;;;77.60;29.30;;;2.20;87.70;;;;;;6061793;23;98500;-72
2022/01/11 06:35:18;;;;;;;86.28;30.60;;;2.20;87.50;;;;;;6083699;23;101509;-72
2022/01/11 06:37:50;;;;;;;78.45;29.90;;;2.20;88.30;;;;;;6059069;23;101097;-72
2022/01/11 06:40:20;;;;;;;84.75;29.10;;;2.30;88.80;;;;;;6060364;23;98580;-73
2022/01/11 06:42:52;;;;;;;87.90;29.30;;;2.30;88.50;;;;;;6060212;23;98457;-72
2022/01/11 06:45:24;;;;;;;73.75;29.33;;;2.30;88.60;;;;;;6059972;23;101632;-72
2022/01/11 06:47:53;;;;;;;94.95;31.65;;;2.30;87.90;;;;;;6059459;23;101205;-74
2022/01/11 06:50:21;;;;;;;84.00;30.70;;;2.30;87.70;;;;;;6060469;23;98642;-73
2022/01/11 06:52:48;;;;;;;86.70;30.10;;;2.40;87.90;;;;;;6060140;23;98633;-72
2022/01/11 06:55:17;;;;;;;85.45;30.00;;;2.40;88.10;;;;;;6060212;23;100594;-72
2022/01/11 06:57:44;;;;;;;102.63;31.65;;;2.40;87.90;;;;;;6059817;23;100742;-73
2022/01/11 07:00:12;;;;;;;93.68;30.42;;;2.40;88.40;;;;;;6059921;23;98420;-66
2022/01/11 07:02:43;;;;;;;99.43;30.23;;;2.50;87.60;;;;;;6060261;23;99256;-66
2022/01/11 07:05:38;;;;;;;97.28;32.33;;;2.50;87.70;;;;;;6065495;23;100352;-66
2022/01/11 07:08:05;;;;;;;98.20;32.55;;;2.50;87.10;;;;;;6061620;23;98814;-66
2022/01/11 07:10:33;;;;;;;78.82;31.08;;;2.50;87.50;;;;;;6060305;23;98911;-66
2022/01/11 07:13:02;;;;;;;77.38;31.10;;;2.50;87.10;;;;;;6060015;23;98583;-65
2022/01/11 07:15:30;;;;;;;74.78;29.55;;;2.50;86.90;;;;;;6059879;23;101721;-66
2022/01/11 07:17:59;;;;;;;71.15;30.67;;;2.50;86.90;;;;;;6059081;23;101030;-66
2022/01/11 07:20:26;;;;;;;78.13;30.35;;;2.60;86.90;;;;;;6085434;23;98136;-66
2022/01/11 07:22:53;;;;;;;76.35;28.98;;;2.50;86.80;;;;;;6059959;23;98651;-66
2022/01/11 07:25:20;;;;;;;66.13;27.45;;;2.60;87.10;;;;;;6084424;23;101861;-66
2022/01/11 07:27:50;;;;;;;68.15;28.60;;;2.60;86.50;;;;;;6059200;23;101240;-66
2022/01/11 07:30:17;;;;;;;75.80;27.88;;;2.60;86.60;;;;;;6084653;23;98517;-66
2022/01/11 07:32:48;;;;;;;71.07;30.83;;;2.50;86.90;;;;;;6060268;23;98560;-66
2022/01/11 07:35:16;;;;;;;66.68;29.17;;;2.50;86.40;;;;;;6035677;23;101435;-66
2022/01/11 07:37:43;;;;;;;58.17;28.08;;;2.60;86.70;;;;;;6084041;23;100098;-66
2022/01/11 07:40:13;;;;;;;62.72;26.60;;;2.50;86.40;;;;;;6084764;23;99007;-66
2022/01/11 07:42:43;;;;;;;72.15;27.95;;;2.50;87.20;;;;;;6084420;23;98543;-66
2022/01/11 07:45:26;;;;;;;63.88;28.42;;;2.50;86.70;;;;;;6084949;23;100888;-66
2022/01/11 07:47:53;;;;;;;54.78;26.00;;;2.50;86.80;;;;;;6059922;23;100716;-66
2022/01/11 07:50:20;;;;;;;57.40;26.35;;;2.40;86.80;;;;;;6084466;23;98579;-66
2022/01/11 07:52:48;;;;;;;55.92;25.38;;;2.40;86.60;;;;;;6084055;23;99122;-66
2022/01/11 07:55:16;;;;;;;56.58;24.92;;;2.40;87.10;;;;;;6059590;23;101794;-66
2022/01/11 07:57:43;;;;;;;65.30;27.23;;;2.40;87.10;;;;;;6061507;23;98927;-66
2022/01/11 08:00:11;;;;;;;58.75;27.13;;;2.30;87.30;;;;;;6061324;23;98463;-66
2022/01/11 08:02:41;;;;;;;59.72;25.65;;;2.40;87.20;;;;;;6061950;23;98378;-66
2022/01/11 08:05:18;;;;;;;44.75;21.38;;;2.40;86.80;;;;;;6058956;23;101205;-66
2022/01/11 08:07:46;;;;;;;43.65;23.08;;;2.40;86.50;;;;;;6059563;23;101418;-66
2022/01/11 08:10:21;;;;;;;49.40;23.70;;;2.40;86.50;;;;;;6038249;23;98190;-66
2022/01/11 08:12:53;;;;;;;49.70;25.73;;;2.50;86.20;;;;;;6060357;23;98589;-66
2022/01/11 08:15:20;;;;;;;50.35;23.80;;;2.50;86.00;;;;;;6084062;23;101603;-66
2022/01/11 08:17:49;;;;;;;45.25;22.77;;;2.60;86.00;;;;;;6059084;23;101461;-66
2022/01/11 08:20:19;;;;;;;45.67;24.70;;;2.60;85.60;;;;;;6083889;23;98905;-66
2022/01/11 08:22:50;;;;;;;43.20;24.42;;;2.70;85.30;;;;;;6059896;23;98500;-66
2022/01/11 08:25:17;;;;;;;39.92;21.45;;;2.70;85.70;;;;;;6059143;23;101660;-66
2022/01/11 08:27:46;;;;;;;42.58;23.05;;;2.80;84.90;;;;;;6083937;23;101255;-66
2022/01/11 08:30:14;;;;;;;41.08;22.02;;;2.80;85.00;;;;;;6058938;23;98494;-66
2022/01/11 08:32:45;;;;;;;37.53;20.50;;;2.80;84.60;;;;;;6059849;23;98591;-66
2022/01/11 08:35:12;;;;;;;44.00;21.65;;;2.90;84.80;;;;;;6061499;23;98323;-72
2022/01/11 08:37:39;;;;;;;41.20;21.42;;;2.90;84.90;;;;;;6059348;23;99645;-73
2022/01/11 08:40:07;;;;;;;40.97;21.80;;;3.00;84.80;;;;;;6084232;23;98475;-72
2022/01/11 08:42:34;;;;;;;39.83;21.08;;;3.00;84.50;;;;;;6059503;23;99288;-72
2022/01/11 08:45:03;;;;;;;35.92;20.13;;;3.10;84.40;;;;;;6059548;23;101136;-73
2022/01/11 08:47:35;;;;;;;37.88;21.00;;;3.20;83.80;;;;;;6059286;23;101044;-72
2022/01/11 08:50:06;;;;;;;39.67;21.80;;;3.20;83.80;;;;;;6059821;23;98851;-72
2022/01/11 08:52:39;;;;;;;40.78;20.60;;;3.40;83.70;;;;;;6084421;23;98478;-72
2022/01/11 08:55:08;;;;;;;36.45;19.98;;;3.40;83.10;;;;;;6059113;23;101555;-72
2022/01/11 08:57:36;;;;;;;41.17;21.63;;;3.40;83.20;;;;;;6059388;23;101172;-72
2022/01/11 09:00:10;;;;;;;42.70;21.42;;;3.50;83.60;;;;;;6084252;23;97797;-73
2022/01/11 09:02:37;;;;;;;39.17;21.25;;;3.60;82.70;;;;;;6059592;23;98674;-72
2022/01/11 09:05:05;;;;;;;42.97;20.90;;;3.60;82.40;;;;;;6058684;23;101300;-72
2022/01/11 09:07:35;;;;;;;44.55;21.95;;;3.70;82.60;;;;;;6059163;23;101430;-72
2022/01/11 09:10:05;;;;;;;34.60;19.98;;;3.80;82.20;;;;;;6059358;23;98462;-72
2022/01/11 09:12:32;;;;;;;37.65;19.75;;;3.80;82.30;;;;;;6035394;23;98521;-72
2022/01/11 09:15:01;;;;;;;39.10;21.08;;;3.80;81.80;;;;;;6059305;23;101491;-72
2022/01/11 09:17:28;;;;;;;38.45;19.63;;;3.90;82.10;;;;;;6058839;23;101116;-73
2022/01/11 09:19:57;;;;;;;38.13;20.55;;;3.90;81.90;;;;;;6059429;23;98477;-72
2022/01/11 09:22:25;;;;;;;38.42;21.50;;;3.90;81.50;;;;;;6059302;23;98534;-72
2022/01/11 09:24:55;;;;;;;34.47;17.08;;;4.00;82.00;;;;;;6059381;23;99509;-73
2022/01/11 09:27:26;;;;;;;29.30;18.00;;;4.00;80.90;;;;;;6058892;23;100591;-73
2022/01/11 09:29:56;;;;;;;32.58;19.17;;;3.90;81.30;;;;;;6059763;23;98531;-73
2022/01/11 09:32:26;;;;;;;35.40;19.00;;;4.00;81.00;;;;;;6083070;23;99302;-72
2022/01/11 09:34:56;;;;;;;38.72;20.48;;;4.00;81.30;;;;;;6058958;23;101814;-72
2022/01/11 09:37:26;;;;;;;32.78;19.92;;;4.10;81.20;;;;;;6058739;23;101519;-72
2022/01/11 09:39:54;;;;;;;33.75;19.65;;;4.20;81.50;;;;;;6059461;23;98875;-72
2022/01/11 09:42:25;;;;;;;34.97;20.67;;;4.20;80.90;;;;;;6060161;23;99021;-72
2022/01/11 09:44:56;;;;;;;35.28;19.77;;;4.30;80.40;;;;;;6084150;23;100500;-72
2022/01/11 09:47:23;;;;;;;27.25;14.90;;;4.30;80.00;;;;;;6084213;23;99926;-72
2022/01/11 09:49:52;;;;;;;34.17;19.15;;;4.30;79.10;;;;;;6037302;23;98458;-72
2022/01/11 09:52:19;;;;;;;34.97;19.48;;;4.40;80.20;;;;;;6060535;23;98482;-72
2022/01/11 09:54:47;;;;;;;29.17;17.58;;;4.40;80.00;;;;;;6061674;23;99003;-72
2022/01/11 09:57:18;;;;;;;34.35;18.58;;;4.50;79.50;;;;;;6059342;23;101040;-72
2022/01/11 09:59:45;;;;;;;31.58;18.20;;;4.50;79.20;;;;;;6060854;23;99112;-72
2022/01/11 10:02:30;;;;;;;29.30;17.23;;;4.60;78.80;;;;;;6062059;23;98435;-72
2022/01/11 10:05:10;;;;;;;31.45;18.52;;;4.60;78.60;;;;;;6060004;23;101313;-72
2022/01/11 10:07:43;;;;;;;31.80;17.90;;;4.70;78.60;;;;;;6060266;23;101495;-72
2022/01/11 10:10:19;;;;;;;28.02;17.75;;;4.70;78.40;;;;;;6060437;23;98525;-72
2022/01/11 10:13:03;;;;;;;28.02;16.58;;;4.80;78.80;;;;;;6060636;23;98629;-72
2022/01/11 10:15:39;;;;;;;27.80;16.40;;;4.80;78.60;;;;;;6060478;23;100609;-66
2022/01/11 10:18:35;;;;;;;27.33;16.75;;;4.90;78.00;;;;;;6060213;23;101045;-66
2022/01/11 10:21:29;;;;;;;23.92;15.75;;;4.90;78.50;;;;;;6060762;23;98540;-66
2022/01/11 10:23:56;;;;;;;23.92;15.07;;;4.90;77.60;;;;;;6035615;23;99602;-72
2022/01/11 10:26:44;;;;;;;21.20;13.52;;;4.70;77.50;;;;;;6059526;23;101213;-72
2022/01/11 10:29:37;;;;;;;26.15;15.85;;;4.70;78.30;;;;;;6059849;23;101277;-72
2022/01/11 10:32:11;;;;;;;27.02;15.20;;;4.60;79.00;;;;;;6060231;23;98647;-73
2022/01/11 10:34:38;;;;;;;20.00;13.55;;;4.60;78.50;;;;;;6060350;23;99058;-73
2022/01/11 10:37:07;;;;;;;24.33;14.45;;;4.50;77.90;;;;;;6060040;23;101531;-73
2022/01/11 10:39:41;;;;;;;25.35;14.27;;;4.40;78.20;;;;;;6059193;23;101960;-73
2022/01/11 10:42:27;;;;;;;24.00;15.32;;;4.40;78.30;;;;;;6060906;23;97808;-73
2022/01/11 10:44:59;;;;;;;;;;;4.40;78.50;;;;;;6061124;23;98654;-73
2022/01/11 10:47:36;;;;;;;21.17;13.77;;;4.30;78.50;;;;;;6111555;23;101984;-73
2022/01/11 10:50:09;;;;;;;24.65;13.85;;;4.30;78.70;;;;;;6059852;23;101393;-73
2022/01/11 10:52:36;;;;;;;22.33;14.25;;;4.20;79.60;;;;;;6059772;23;99072;-72
2022/01/11 10:55:22;;;;;;;22.25;14.88;;;4.20;79.20;;;;;;6060333;23;98631;-72
2022/01/11 10:57:56;;;;;;;26.35;15.63;;;4.20;79.10;;;;;;6059761;23;101515;-72
2022/01/11 11:00:36;;;;;;;25.58;14.82;;;4.30;79.60;;;;;;6060089;23;101141;-72
2022/01/11 11:03:07;;;;;;;20.30;14.55;;;4.30;79.80;;;;;;6060432;23;98470;-72
2022/01/11 11:05:52;;;;;;;23.25;14.25;;;4.30;79.90;;;;;;6086546;23;98533;-75
2022/01/11 11:08:50;;;;;;;23.15;13.90;;;4.40;79.80;;;;;;6065335;23;100752;-72
2022/01/11 11:11:28;;;;;;;21.60;13.63;;;4.40;79.90;;;;;;6064880;23;100628;-72
2022/01/11 11:14:13;;;;;;;26.27;14.00;;;4.40;80.80;;;;;;6091778;23;98510;-72
2022/01/11 11:16:45;;;;;;;21.02;13.27;;;4.50;79.70;;;;;;6064364;23;99313;-72
2022/01/11 11:19:17;;;;;;;21.48;13.48;;;4.50;79.80;;;;;;6089546;23;101411;-72
2022/01/11 11:21:50;;;;;;;23.65;13.23;;;4.60;80.30;;;;;;6064711;23;100879;-72
2022/01/11 11:24:17;;;;;;;20.52;13.52;;;4.70;79.70;;;;;;6089979;23;98473;-72
2022/01/11 11:26:49;;;;;;;21.85;12.65;;;4.80;78.90;;;;;;6091176;23;98443;-72
2022/01/11 11:29:18;;;;;;;21.92;12.88;;;4.80;79.50;;;;;;6090899;23;99073;-72
2022/01/11 11:32:06;;;;;;;29.58;20.05;;;4.90;79.20;;;;;;6091032;23;99138;-72
2022/01/11 11:34:34;;;;;;;23.27;14.25;;;4.90;78.90;;;;;;6114394;23;97711;-72
2022/01/11 11:37:04;;;;;;;20.55;13.30;;;5.00;79.20;;;;;;6091346;23;98446;-72
2022/01/11 11:39:33;;;;;;;20.88;12.27;;;5.10;78.60;;;;;;6090831;23;98963;-72
2022/01/11 11:42:02;;;;;;;22.38;12.85;;;5.10;78.70;;;;;;6090148;23;99147;-72
2022/01/11 11:44:36;;;;;;;21.83;13.18;;;5.20;78.70;;;;;;6090460;23;105142;-74
2022/01/11 11:47:06;;;;;;;19.27;12.20;;;5.20;78.10;;;;;;6065274;23;99380;-73
2022/01/11 11:49:49;;;;;;;18.73;11.52;;;5.30;77.80;;;;;;6090937;23;99125;-72
2022/01/11 11:52:31;;;;;;;21.58;12.65;;;5.50;77.60;;;;;;6090991;23;98764;-72
2022/01/11 11:55:31;;;;;;;20.05;12.23;;;5.50;77.60;;;;;;6090917;23;98368;-72
2022/01/11 11:58:05;;;;;;;14.65;9.73;;;5.60;77.60;;;;;;6058866;23;98584;-72
2022/01/11 12:00:41;;;;;;;23.08;13.05;;;5.60;76.90;;;;;;6092032;23;98333;-72
2022/01/11 12:03:25;;;;;;;21.33;11.38;;;5.60;76.60;;;;;;6065118;23;99040;-72
2022/01/11 12:05:53;;;;;;;19.63;12.77;;;5.70;77.00;;;;;;6089609;23;99341;-72
2022/01/11 12:08:41;;;;;;;22.85;13.65;;;5.80;77.10;;;;;;6090774;23;99191;-72
2022/01/11 12:11:15;;;;;;;22.15;15.23;;;5.90;76.20;;;;;;6114147;23;100439;-73
2022/01/11 12:13:48;;;;;;;18.15;11.05;;;6.00;76.00;;;;;;6088897;23;101232;-73
2022/01/11 12:16:26;;;;;;;18.02;11.63;;;6.00;76.20;;;;;;6065055;23;98521;-73
2022/01/11 12:18:54;;;;;;;19.00;11.93;;;6.10;75.40;;;;;;6091012;23;98552;-73
2022/01/11 12:21:22;;;;;;;18.38;11.43;;;6.20;74.80;;;;;;6090453;23;99140;-73
2022/01/11 12:23:53;;;;;;;18.25;11.57;;;6.30;74.20;;;;;;6090494;23;99232;-73
2022/01/11 12:26:31;;;;;;;17.45;11.02;;;6.50;74.60;;;;;;6091921;23;98196;-73
2022/01/11 12:29:11;;;;;;;17.42;10.82;;;6.60;74.40;;;;;;6090881;23;98611;-73
2022/01/11 12:31:39;;;;;;;19.30;11.60;;;6.70;73.90;;;;;;6090855;23;99130;-73
2022/01/11 12:34:11;;;;;;;19.90;11.20;;;6.70;73.80;;;;;;6089979;23;99182;-73
2022/01/11 12:37:02;;;;;;;18.63;11.07;;;6.80;73.70;;;;;;6090997;23;98403;-73
2022/01/11 12:39:31;;;;;;;19.92;11.07;;;6.90;72.70;;;;;;6091089;23;98723;-73
2022/01/11 12:42:07;;;;;;;16.42;11.35;;;6.90;72.60;;;;;;6090277;23;99023;-73
2022/01/11 12:47:07;;;;;;;19.27;11.05;;;7.00;72.40;;;;;;6090598;23;98403;-73
2022/01/11 12:49:41;;;;;;;18.52;10.48;;;7.10;72.40;;;;;;6090630;23;98536;-73
2022/01/11 12:52:17;;;;;;;;;;;7.10;71.90;;;;;;6091610;23;99010;-73
2022/01/11 12:54:48;;;;;;;18.98;9.73;;;7.10;72.00;;;;;;6092290;23;98588;-74